Time;durP1;ratioP1;P1;durP2;ratioP2;P2;SDS_P1;SDS_P2;PMS_P1;PMS_P2;Temp;Humidity;BMP_temperature;BMP_pressure;BME280_temperature;BME280_humidity;BME280_pressure;Samples;Min_cycle;Max_cycle;Signal;HPM_P1;HPM_P2
2023/10/10 00:01:17;;;;;;;19.65;8.88;;;15.20;99.90;;;;;;4983225;28;20061;-40
2023/10/10 00:03:45;;;;;;;19.70;9.15;;;15.20;99.90;;;;;;4986020;28;20455;-40
2023/10/10 00:06:14;;;;;;;14.98;8.15;;;15.20;99.90;;;;;;4980305;28;20492;-40
2023/10/10 00:08:43;;;;;;;16.38;7.68;;;15.10;99.90;;;;;;4973358;28;20647;-39
2023/10/10 00:11:14;;;;;;;15.23;8.20;;;15.10;99.90;;;;;;4973450;28;20086;-40
2023/10/10 00:13:42;;;;;;;17.83;7.88;;;15.10;99.90;;;;;;4973187;28;20097;-39
2023/10/10 00:16:12;;;;;;;16.25;9.05;;;15.10;99.90;;;;;;4973687;28;20534;-38
2023/10/10 00:18:45;;;;;;;18.20;7.72;;;15.00;99.90;;;;;;4955739;28;20051;-41
2023/10/10 00:21:22;;;;;;;18.55;8.18;;;14.90;99.90;;;;;;4972589;28;20058;-39
2023/10/10 00:23:53;;;;;;;24.60;8.38;;;14.90;99.90;;;;;;4972443;28;20619;-39
2023/10/10 00:26:25;;;;;;;16.38;7.78;;;14.90;99.90;;;;;;4972656;28;20120;-40
2023/10/10 00:28:56;;;;;;;16.15;8.80;;;14.80;99.90;;;;;;4969645;28;20054;-39
2023/10/10 00:31:26;;;;;;;16.95;8.52;;;14.80;99.90;;;;;;4950863;28;20047;-40
2023/10/10 00:33:55;;;;;;;16.58;7.55;;;14.80;99.90;;;;;;4954231;28;20039;-39
2023/10/10 00:36:28;;;;;;;15.68;7.90;;;14.80;99.90;;;;;;4983217;28;20053;-39
2023/10/10 00:39:22;;;;;;;21.55;7.78;;;14.70;99.90;;;;;;4969167;28;20038;-39
2023/10/10 00:44:19;;;;;;;21.77;8.57;;;14.70;99.90;;;;;;4970069;28;20047;-38
2023/10/10 00:46:54;;;;;;;18.75;7.55;;;14.70;99.90;;;;;;4971797;28;20054;-39
2023/10/10 00:49:26;;;;;;;15.40;7.25;;;14.70;99.90;;;;;;4972681;28;20539;-38
2023/10/10 00:52:01;;;;;;;17.05;7.38;;;14.80;99.90;;;;;;4972481;28;20147;-41
2023/10/10 00:54:32;;;;;;;17.73;7.07;;;14.70;99.90;;;;;;4975649;28;20537;-40
2023/10/10 00:57:00;;;;;;;20.70;8.57;;;14.70;99.90;;;;;;4971518;28;20146;-41
2023/10/10 01:02:04;;;;;;;16.60;9.35;;;14.70;99.90;;;;;;4971096;28;20046;-40
2023/10/10 01:04:38;;;;;;;13.25;7.38;;;14.60;99.90;;;;;;4953949;28;20102;-39
2023/10/10 01:07:10;;;;;;;22.15;8.70;;;14.60;99.90;;;;;;4971717;28;20072;-37
2023/10/10 01:09:41;;;;;;;13.15;7.63;;;14.70;99.90;;;;;;4971286;28;20043;-40
2023/10/10 01:12:09;;;;;;;17.30;7.57;;;14.60;99.90;;;;;;4976347;28;20499;-39
2023/10/10 01:14:38;;;;;;;15.38;7.65;;;14.60;99.90;;;;;;4970494;28;20047;-40
2023/10/10 01:17:11;;;;;;;12.23;7.18;;;14.60;99.90;;;;;;4971587;28;20053;-39
2023/10/10 01:19:41;;;;;;;14.32;7.35;;;14.60;99.90;;;;;;4954394;28;20047;-39
2023/10/10 01:22:22;;;;;;;12.88;7.43;;;14.60;99.90;;;;;;4954658;28;20078;-40
2023/10/10 01:24:53;;;;;;;13.23;6.70;;;14.50;99.90;;;;;;4954619;28;20047;-38
2023/10/10 01:27:22;;;;;;;12.75;7.15;;;14.60;99.90;;;;;;4970949;28;20175;-41
2023/10/10 01:30:01;;;;;;;14.35;7.45;;;14.60;99.90;;;;;;4970949;28;20121;-39
2023/10/10 01:32:29;;;;;;;14.80;7.43;;;14.50;99.90;;;;;;4968050;28;20381;-40
2023/10/10 01:34:56;;;;;;;15.15;7.03;;;14.50;99.90;;;;;;4954051;28;20082;-40
2023/10/10 01:37:27;;;;;;;17.80;7.78;;;14.50;99.90;;;;;;4970948;28;20053;-41
2023/10/10 01:40:16;;;;;;;18.85;7.28;;;14.50;99.90;;;;;;4966453;28;20051;-37
2023/10/10 01:42:53;;;;;;;11.88;7.22;;;14.40;99.90;;;;;;4969746;28;20054;-39
2023/10/10 01:45:23;;;;;;;17.63;7.03;;;14.40;99.90;;;;;;4970765;28;20131;-38
2023/10/10 01:47:56;;;;;;;17.08;6.80;;;14.30;99.90;;;;;;4953325;28;20058;-39
2023/10/10 01:50:30;;;;;;;14.82;7.50;;;14.30;99.90;;;;;;4967231;28;20057;-40
2023/10/10 01:52:58;;;;;;;21.50;8.15;;;14.30;99.90;;;;;;4951479;28;20054;-38
2023/10/10 01:55:26;;;;;;;13.98;7.78;;;14.20;99.90;;;;;;4956200;28;20042;-40
2023/10/10 01:57:57;;;;;;;17.50;7.38;;;14.20;99.90;;;;;;4964839;28;20525;-40
2023/10/10 02:02:57;;;;;;;15.00;7.57;;;14.20;99.90;;;;;;4971868;28;20117;-39
2023/10/10 02:05:45;;;;;;;12.30;6.38;;;14.10;99.90;;;;;;4952522;28;20054;-41
2023/10/10 02:08:17;;;;;;;18.30;7.32;;;14.10;99.90;;;;;;4957525;28;20043;-40
2023/10/10 02:10:49;;;;;;;16.08;7.65;;;14.10;99.90;;;;;;4970638;28;20130;-38
2023/10/10 02:13:18;;;;;;;15.57;7.38;;;14.10;99.90;;;;;;4961172;28;20046;-41
2023/10/10 02:15:50;;;;;;;13.85;7.63;;;14.00;99.90;;;;;;4971251;28;20047;-40
2023/10/10 02:18:23;;;;;;;16.30;7.28;;;14.00;99.90;;;;;;4966884;28;20353;-39
2023/10/10 02:20:52;;;;;;;14.70;7.40;;;14.00;99.90;;;;;;4971390;28;20050;-39
2023/10/10 02:23:24;;;;;;;16.15;7.55;;;14.00;99.90;;;;;;4957757;28;20051;-40
2023/10/10 02:25:55;;;;;;;16.15;8.93;;;13.90;99.90;;;;;;4951074;28;20038;-41
2023/10/10 02:28:42;;;;;;;16.42;7.53;;;14.00;99.90;;;;;;4972510;28;20051;-40
2023/10/10 02:31:12;;;;;;;18.40;7.53;;;13.90;99.90;;;;;;4973164;28;20062;-40
2023/10/10 02:33:48;;;;;;;18.65;7.32;;;13.90;99.90;;;;;;4972448;28;20060;-40
2023/10/10 02:36:16;;;;;;;13.05;6.68;;;13.90;99.90;;;;;;4974775;28;20061;-42
2023/10/10 02:38:54;;;;;;;15.43;7.53;;;13.90;99.90;;;;;;4976219;28;20124;-41
2023/10/10 02:44:09;;;;;;;17.30;7.72;;;13.90;99.90;;;;;;4979455;28;20139;-42
2023/10/10 02:46:39;;;;;;;14.90;7.00;;;13.90;99.90;;;;;;4978958;28;20138;-40
2023/10/10 02:51:57;;;;;;;15.48;7.45;;;13.90;99.90;;;;;;4982327;28;20043;-41
2023/10/10 02:54:43;;;;;;;13.63;7.35;;;13.90;99.90;;;;;;4988147;28;20058;-40
2023/10/10 03:00:27;;;;;;;17.52;7.82;;;13.80;99.90;;;;;;4983349;28;20058;-40
2023/10/10 03:02:53;;;;;;;13.63;7.25;;;13.80;99.90;;;;;;4976318;28;20051;-40
2023/10/10 03:05:39;;;;;;;15.10;7.50;;;13.70;99.90;;;;;;4976740;28;20046;-40
2023/10/10 03:08:14;;;;;;;12.73;6.80;;;13.70;99.90;;;;;;4978356;28;20064;-40
2023/10/10 03:10:45;;;;;;;14.15;7.82;;;13.70;99.90;;;;;;4965359;28;20051;-41
2023/10/10 03:13:27;;;;;;;18.30;7.97;;;13.70;99.90;;;;;;4978836;28;20061;-40
2023/10/10 03:16:19;;;;;;;24.27;11.25;;;13.60;99.90;;;;;;4983546;28;20452;-39
2023/10/10 03:27:37;;;;;;;15.15;8.07;;;13.60;99.90;;;;;;4971834;28;20067;-39
2023/10/10 03:29:50;;;;;;;16.60;8.02;;;13.60;99.90;;;;;;4955998;28;20051;-40
2023/10/10 03:32:34;;;;;;;13.55;7.63;;;13.60;99.90;;;;;;4960029;28;20136;-38
2023/10/10 03:35:20;;;;;;;16.15;8.25;;;13.50;99.90;;;;;;4968700;28;20047;-40
2023/10/10 03:38:04;;;;;;;15.88;7.07;;;13.60;99.90;;;;;;4974335;28;20054;-40
2023/10/10 05:23:34;;;;;;;17.08;9.25;;;12.90;99.90;;;;;;4980322;28;20042;-40
2023/10/10 05:26:05;;;;;;;18.48;9.00;;;12.90;99.90;;;;;;4983624;28;20078;-44
2023/10/10 05:28:32;;;;;;;19.05;8.38;;;12.90;99.90;;;;;;4986878;28;20066;-41
2023/10/10 05:31:02;;;;;;;21.50;10.40;;;12.90;99.90;;;;;;4985307;28;20126;-40
2023/10/10 05:33:34;;;;;;;18.13;10.13;;;12.90;99.90;;;;;;4979378;28;20558;-41
2023/10/10 05:36:06;;;;;;;24.53;11.63;;;12.90;99.90;;;;;;4972632;28;20403;-41
2023/10/10 05:38:42;;;;;;;16.73;9.57;;;12.90;99.90;;;;;;4971491;28;20043;-41
2023/10/10 05:41:12;;;;;;;19.63;9.27;;;12.80;99.90;;;;;;4967629;28;20047;-39
2023/10/10 05:43:39;;;;;;;20.25;8.35;;;12.80;99.90;;;;;;4971224;28;20129;-40
2023/10/10 05:46:08;;;;;;;16.90;8.93;;;12.80;99.90;;;;;;4972471;28;20049;-40
2023/10/10 05:48:36;;;;;;;21.15;8.90;;;12.80;99.90;;;;;;4972373;28;20077;-42
2023/10/10 05:51:04;;;;;;;20.42;9.00;;;12.80;99.90;;;;;;4968818;28;20046;-40
2023/10/10 05:53:33;;;;;;;21.02;10.32;;;12.90;99.90;;;;;;4976185;28;20066;-40
2023/10/10 05:56:12;;;;;;;23.42;10.25;;;12.90;99.90;;;;;;4986262;28;20058;-39
2023/10/10 05:58:42;;;;;;;20.75;9.60;;;13.00;99.90;;;;;;4975876;28;20047;-40
2023/10/10 06:01:14;;;;;;;19.85;9.18;;;13.00;99.90;;;;;;4979631;28;20070;-41
2023/10/10 06:03:44;;;;;;;22.15;8.43;;;13.00;99.90;;;;;;4975517;28;20186;-39
2023/10/10 06:06:13;;;;;;;18.90;9.20;;;13.10;99.90;;;;;;4971809;28;20081;-41
2023/10/10 06:08:44;;;;;;;20.88;10.27;;;13.10;99.90;;;;;;4970672;28;20065;-39
2023/10/10 06:11:16;;;;;;;23.38;9.80;;;13.10;99.90;;;;;;4969609;28;20107;-39
2023/10/10 06:13:45;;;;;;;21.33;8.85;;;13.10;99.90;;;;;;4973039;28;20057;-39
2023/10/10 06:16:14;;;;;;;17.27;8.43;;;13.20;99.90;;;;;;4969231;28;20054;-39
2023/10/10 06:18:44;;;;;;;20.75;9.23;;;13.30;99.90;;;;;;4969742;28;20055;-39
2023/10/10 06:21:14;;;;;;;22.85;10.05;;;13.30;99.90;;;;;;4971713;28;20133;-39
2023/10/10 06:23:44;;;;;;;20.75;9.93;;;13.30;99.90;;;;;;4968980;28;20372;-40
2023/10/10 06:26:12;;;;;;;17.30;9.80;;;13.40;99.90;;;;;;4971449;28;20372;-39
2023/10/10 06:28:47;;;;;;;21.38;8.85;;;13.50;99.90;;;;;;4947559;28;20077;-41
2023/10/10 06:31:33;;;;;;;20.48;9.07;;;13.60;99.90;;;;;;4966136;28;20547;-40
2023/10/10 06:34:19;;;;;;;19.52;8.52;;;13.70;99.90;;;;;;4966196;28;20047;-41
2023/10/10 06:36:48;;;;;;;20.10;8.68;;;13.90;99.90;;;;;;4968558;28;20122;-39
2023/10/10 06:41:47;;;;;;;17.75;9.45;;;14.10;99.90;;;;;;4969100;28;20511;-40
2023/10/10 06:44:15;;;;;;;21.40;8.80;;;14.20;99.90;;;;;;4973816;28;20117;-39
2023/10/10 06:46:49;;;;;;;19.88;9.02;;;14.20;99.90;;;;;;4957273;28;20399;-40
2023/10/10 06:49:20;;;;;;;21.17;10.73;;;14.30;99.90;;;;;;4975347;28;20543;-38
2023/10/10 06:51:49;;;;;;;19.02;8.70;;;14.40;99.90;;;;;;4971610;28;20098;-41
2023/10/10 06:54:21;;;;;;;19.65;9.07;;;14.40;99.90;;;;;;4971289;28;20042;-39
2023/10/10 06:57:16;;;;;;;22.10;9.57;;;14.50;99.90;;;;;;4970410;28;20043;-39
2023/10/10 06:59:35;;;;;;;22.45;9.00;;;14.60;99.90;;;;;;4968061;28;20054;-40
2023/10/10 07:02:21;;;;;;;21.45;9.85;;;14.70;99.90;;;;;;4971272;28;20105;-40
2023/10/10 07:04:52;;;;;;;20.70;9.48;;;14.70;99.90;;;;;;4970739;28;20591;-39
2023/10/10 07:07:20;;;;;;;24.85;11.68;;;14.80;99.90;;;;;;4970275;28;20113;-39
2023/10/10 07:09:57;;;;;;;20.08;10.25;;;14.90;99.90;;;;;;4970390;28;20107;-41
2023/10/10 07:12:28;;;;;;;18.70;10.20;;;15.00;99.90;;;;;;4970454;28;20109;-43
2023/10/10 07:14:56;;;;;;;18.65;9.23;;;15.00;99.90;;;;;;4970378;28;20542;-39
2023/10/10 07:17:27;;;;;;;20.88;10.55;;;15.10;99.90;;;;;;4970587;28;20046;-39
2023/10/10 07:21:04;;;;;;;19.23;9.00;;;15.10;99.90;;;;;;4966162;28;20245;-40
2023/10/10 07:22:44;;;;;;;44.92;21.77;;;15.30;99.90;;;;;;4969126;28;20081;-39
2023/10/10 07:25:18;;;;;;;34.47;12.60;;;15.40;99.90;;;;;;4968866;28;20047;-41
2023/10/10 07:27:45;;;;;;;26.42;11.30;;;15.40;99.90;;;;;;4969980;28;20057;-41
2023/10/10 07:30:16;;;;;;;27.15;12.07;;;15.40;99.90;;;;;;4970719;28;20503;-41
2023/10/10 07:32:48;;;;;;;20.17;11.33;;;15.40;99.90;;;;;;4969853;28;20412;-42
2023/10/10 07:35:25;;;;;;;21.27;12.25;;;15.50;99.90;;;;;;4969815;28;20326;-41
2023/10/10 07:37:58;;;;;;;26.80;13.35;;;15.60;99.90;;;;;;4965860;28;20157;-39
2023/10/10 07:40:30;;;;;;;26.05;13.52;;;15.60;99.90;;;;;;4986331;28;20540;-41
2023/10/10 07:42:59;;;;;;;25.88;12.65;;;15.70;99.90;;;;;;4972990;28;20138;-41
2023/10/10 07:45:33;;;;;;;22.52;11.98;;;15.80;99.90;;;;;;4973785;28;20039;-41
2023/10/10 07:50:47;;;;;;;23.83;10.25;;;15.90;99.90;;;;;;4970146;28;20047;-40
2023/10/10 07:53:17;;;;;;;25.80;10.95;;;16.10;99.90;;;;;;4974880;28;20052;-40
2023/10/10 07:56:03;;;;;;;21.67;11.02;;;16.30;99.90;;;;;;4970380;28;20046;-41
2023/10/10 08:01:20;;;;;;;28.60;12.23;;;16.50;99.90;;;;;;4970431;28;20643;-41
2023/10/10 08:03:48;;;;;;;21.73;11.80;;;16.50;99.90;;;;;;4977599;28;20082;-40
2023/10/10 08:06:18;;;;;;;22.63;11.02;;;16.70;99.90;;;;;;4987723;28;20042;-40
2023/10/10 08:09:09;;;;;;;22.73;11.68;;;16.90;99.90;;;;;;4988935;28;20106;-40
2023/10/10 08:11:37;;;;;;;24.52;10.65;;;16.90;99.90;;;;;;4978817;28;20053;-40
2023/10/10 08:14:08;;;;;;;19.77;11.20;;;16.90;99.90;;;;;;4973110;28;20049;-42
2023/10/10 08:16:42;;;;;;;25.98;10.90;;;17.00;99.90;;;;;;4974275;28;20125;-40
2023/10/10 08:19:10;;;;;;;26.55;11.73;;;17.20;99.90;;;;;;4973656;28;20054;-39
2023/10/10 08:21:39;;;;;;;18.92;11.32;;;17.40;99.90;;;;;;4962145;28;20520;-40
2023/10/10 08:24:08;;;;;;;25.48;11.25;;;17.50;99.90;;;;;;4971868;28;20047;-40
2023/10/10 08:26:41;;;;;;;24.75;12.25;;;17.60;99.90;;;;;;4974121;28;20073;-42
2023/10/10 08:29:09;;;;;;;25.17;11.77;;;17.50;99.90;;;;;;4974812;28;20054;-37
2023/10/10 08:31:39;;;;;;;19.63;11.43;;;17.50;99.90;;;;;;4973210;28;20063;-41
2023/10/10 08:34:09;;;;;;;19.67;11.25;;;17.60;99.90;;;;;;4972984;28;20114;-40
2023/10/10 08:36:38;;;;;;;25.33;11.23;;;17.70;99.90;;;;;;4974932;28;20393;-39
2023/10/10 08:39:17;;;;;;;25.75;11.90;;;17.70;99.90;;;;;;4963327;28;20053;-41
2023/10/10 08:41:45;;;;;;;32.60;14.70;;;17.90;99.90;;;;;;4978531;28;20138;-40
2023/10/10 08:44:19;;;;;;;22.60;12.15;;;18.00;99.90;;;;;;4964229;28;20050;-41
2023/10/10 08:46:48;;;;;;;26.83;12.00;;;18.30;99.90;;;;;;4981834;28;20078;-42
2023/10/10 08:49:16;;;;;;;19.60;12.02;;;18.20;99.90;;;;;;4983973;28;20101;-38
2023/10/10 08:51:45;;;;;;;22.45;11.43;;;18.30;99.90;;;;;;4986441;28;20051;-40
2023/10/10 08:54:15;;;;;;;23.33;11.80;;;18.60;99.90;;;;;;4982293;28;20039;-41
2023/10/10 08:57:03;;;;;;;20.90;11.27;;;18.70;99.90;;;;;;4982572;28;20118;-41
2023/10/10 08:59:31;;;;;;;20.17;11.23;;;18.90;99.90;;;;;;4979835;28;20042;-40
2023/10/10 09:02:12;;;;;;;22.23;12.18;;;19.00;99.90;;;;;;4980507;28;20125;-42
2023/10/10 09:04:39;;;;;;;23.25;12.85;;;18.70;99.90;;;;;;4978806;28;20057;-38
2023/10/10 09:07:11;;;;;;;21.23;11.68;;;18.90;99.90;;;;;;4971867;28;20507;-38
2023/10/10 09:09:40;;;;;;;28.17;12.93;;;19.00;99.90;;;;;;4972477;28;20058;-42
2023/10/10 09:12:14;;;;;;;22.20;11.60;;;19.10;99.90;;;;;;4965994;28;20050;-39
2023/10/10 09:14:49;;;;;;;22.83;11.77;;;19.20;99.90;;;;;;4970544;28;20066;-40
2023/10/10 09:17:34;;;;;;;18.35;11.50;;;19.20;99.90;;;;;;4974580;28;20078;-43
2023/10/10 09:20:22;;;;;;;19.27;11.23;;;19.50;99.90;;;;;;4973027;28;20077;-41
2023/10/10 09:23:11;;;;;;;19.75;11.07;;;19.60;99.90;;;;;;4973299;28;20062;-41
2023/10/10 09:25:44;;;;;;;18.17;10.95;;;19.80;99.90;;;;;;4969467;28;20209;-40
2023/10/10 09:28:15;;;;;;;23.38;13.32;;;19.80;99.90;;;;;;4972962;28;20101;-42
2023/10/10 09:30:50;;;;;;;20.55;10.90;;;19.90;99.90;;;;;;4972787;28;20137;-38
2023/10/10 09:33:33;;;;;;;18.55;11.70;;;19.80;99.90;;;;;;4959930;28;20129;-38
2023/10/10 09:36:10;;;;;;;34.17;12.85;;;19.90;99.90;;;;;;4968892;28;20396;-40
2023/10/10 09:38:45;;;;;;;18.35;10.68;;;20.00;99.90;;;;;;4972047;28;20046;-40
2023/10/10 09:41:28;;;;;;;18.50;10.27;;;20.10;99.90;;;;;;4973406;28;20069;-39
2023/10/10 09:49:46;;;;;;;15.90;10.38;;;20.80;99.90;;;;;;4969357;28;20051;-39
2023/10/10 09:57:42;;;;;;;18.38;10.80;;;21.60;99.90;;;;;;4965502;28;20253;-39
2023/10/10 10:00:14;;;;;;;14.90;10.02;;;21.90;99.90;;;;;;4973089;28;20043;-41
2023/10/10 10:02:57;;;;;;;16.98;9.88;;;21.90;99.90;;;;;;4978735;28;20511;-39
2023/10/10 10:05:31;;;;;;;16.35;9.68;;;22.00;99.90;;;;;;4974181;28;20054;-40
2023/10/10 10:08:06;;;;;;;16.63;10.18;;;22.30;99.90;;;;;;4968484;28;20051;-41
2023/10/10 10:11:11;;;;;;;17.38;10.70;;;22.00;99.90;;;;;;4968068;28;20039;-41
2023/10/10 10:13:58;;;;;;;13.15;10.45;;;22.20;99.90;;;;;;4970504;28;20042;-40
2023/10/10 10:16:54;;;;;;;14.85;10.05;;;22.30;99.90;;;;;;4971606;28;20046;-41
2023/10/10 10:19:27;;;;;;;16.15;9.98;;;22.30;99.90;;;;;;4975864;28;20526;-40
2023/10/10 10:22:08;;;;;;;12.55;10.20;;;22.60;99.90;;;;;;4974108;28;20070;-41
2023/10/10 10:24:44;;;;;;;18.48;10.90;;;22.50;99.90;;;;;;4973509;28;20053;-40
2023/10/10 10:27:31;;;;;;;15.82;10.55;;;22.60;99.90;;;;;;4970381;28;20050;-40
2023/10/10 10:30:35;;;;;;;18.13;9.88;;;22.80;99.90;;;;;;4970364;28;20146;-41
2023/10/10 10:33:00;;;;;;;15.95;10.02;;;22.40;99.90;;;;;;4965324;28;20047;-40
2023/10/10 10:36:06;;;;;;;17.15;10.15;;;23.10;99.90;;;;;;4965949;28;20038;-39
2023/10/10 10:38:39;;;;;;;15.93;9.85;;;23.40;99.90;;;;;;4969956;28;20046;-39
2023/10/10 10:41:17;;;;;;;15.15;9.85;;;23.60;99.90;;;;;;4976772;28;20046;-40
2023/10/10 10:43:51;;;;;;;13.00;8.88;;;24.00;99.90;;;;;;4976150;28;20117;-40
2023/10/10 10:46:39;;;;;;;17.92;9.23;;;24.40;99.90;;;;;;4975662;28;20130;-40
2023/10/10 10:49:12;;;;;;;14.32;9.48;;;24.40;99.90;;;;;;4954259;28;20047;-40
2023/10/10 10:51:42;;;;;;;13.45;8.80;;;24.20;99.90;;;;;;4971976;28;20514;-41
2023/10/10 10:54:29;;;;;;;16.63;9.38;;;24.30;99.90;;;;;;4955295;28;20154;-40
2023/10/10 10:57:02;;;;;;;11.52;8.98;;;24.70;99.90;;;;;;4971368;28;20496;-40
2023/10/10 10:59:38;;;;;;;16.27;8.60;;;24.50;99.90;;;;;;4972105;28;20421;-39
2023/10/10 11:02:16;;;;;;;15.00;9.10;;;24.70;99.90;;;;;;4970375;28;20057;-41
2023/10/10 11:04:50;;;;;;;16.00;9.13;;;24.70;99.90;;;;;;4953666;28;20051;-39
2023/10/10 11:07:29;;;;;;;14.52;8.55;;;24.70;99.90;;;;;;4971796;28;20124;-39
2023/10/10 11:10:08;;;;;;;14.45;8.70;;;24.70;99.90;;;;;;4970564;28;20525;-40
2023/10/10 11:12:40;;;;;;;15.75;8.57;;;25.00;99.90;;;;;;4970330;28;20035;-39
2023/10/10 11:15:10;;;;;;;13.18;8.68;;;25.00;99.90;;;;;;4974490;28;20457;-37
2023/10/10 11:17:38;;;;;;;15.20;8.90;;;25.30;99.90;;;;;;4975954;28;20047;-41
2023/10/10 11:20:25;;;;;;;17.17;10.98;;;25.80;99.90;;;;;;4975895;28;20054;-40
2023/10/10 11:22:55;;;;;;;10.98;8.57;;;26.00;99.90;;;;;;4971913;28;20046;-39
2023/10/10 11:25:41;;;;;;;10.90;8.00;;;26.40;99.90;;;;;;4956228;28;20484;-39
2023/10/10 11:28:21;;;;;;;16.73;8.60;;;26.40;99.90;;;;;;4974007;28;20042;-41
2023/10/10 11:30:51;;;;;;;10.18;8.18;;;26.40;99.90;;;;;;4979606;28;20046;-40
2023/10/10 11:33:48;;;;;;;15.05;8.18;;;27.30;99.90;;;;;;4982350;28;20045;-39
2023/10/10 11:36:29;;;;;;;19.40;8.18;;;27.10;99.90;;;;;;4983539;28;20066;-39
2023/10/10 11:39:15;;;;;;;14.18;9.02;;;27.00;99.90;;;;;;4982710;28;20507;-40
2023/10/10 11:41:45;;;;;;;9.77;8.13;;;26.80;99.90;;;;;;4961970;28;20081;-39
2023/10/10 11:44:18;;;;;;;12.10;7.60;;;27.20;99.90;;;;;;4976148;28;20504;-40
2023/10/10 11:46:46;;;;;;;13.05;8.80;;;27.00;99.90;;;;;;4975113;28;20094;-39
2023/10/10 11:49:17;;;;;;;15.27;9.40;;;27.60;99.90;;;;;;4960276;28;20106;-39
2023/10/10 11:51:46;;;;;;;12.32;9.00;;;28.30;99.90;;;;;;4974667;28;20388;-40
2023/10/10 11:54:14;;;;;;;10.07;8.13;;;28.60;98.50;;;;;;4977713;28;20066;-40
2023/10/10 11:56:41;;;;;;;12.05;7.97;;;28.80;97.40;;;;;;4987020;28;20062;-39
2023/10/10 11:59:14;;;;;;;13.90;8.07;;;28.90;95.70;;;;;;4986251;28;20050;-40
2023/10/10 12:02:07;;;;;;;13.30;8.77;;;28.60;95.70;;;;;;4981105;28;20122;-39
2023/10/10 12:04:37;;;;;;;11.25;8.27;;;28.40;95.20;;;;;;4975240;28;20101;-40
2023/10/10 12:07:05;;;;;;;11.13;8.50;;;27.70;95.20;;;;;;4976893;28;20046;-39
2023/10/10 12:09:34;;;;;;;14.52;9.18;;;27.70;95.10;;;;;;4973130;28;20409;-39
2023/10/10 12:12:04;;;;;;;13.48;8.60;;;27.90;95.20;;;;;;4974420;28;20069;-38
2023/10/10 12:14:32;;;;;;;14.88;8.93;;;27.60;95.00;;;;;;4971116;28;20510;-37
2023/10/10 12:17:05;;;;;;;14.30;8.85;;;27.90;95.10;;;;;;4974573;28;20118;-38
2023/10/10 12:19:37;;;;;;;12.45;8.82;;;28.30;94.90;;;;;;4972112;28;20050;-39
2023/10/10 12:22:10;;;;;;;16.38;8.98;;;28.70;94.00;;;;;;4960995;28;20046;-42
2023/10/10 12:24:41;;;;;;;11.90;8.70;;;28.70;93.40;;;;;;4971871;28;20125;-40
2023/10/10 12:27:12;;;;;;;12.90;9.32;;;29.20;92.60;;;;;;4973433;28;20047;-39
2023/10/10 12:29:39;;;;;;;13.30;8.40;;;29.60;92.20;;;;;;4974681;28;20079;-40
2023/10/10 12:32:15;;;;;;;14.23;9.00;;;30.40;91.10;;;;;;4980697;28;20042;-39
2023/10/10 12:34:45;;;;;;;11.68;9.13;;;31.50;89.50;;;;;;4983032;28;20050;-39
2023/10/10 12:37:16;;;;;;;13.65;9.45;;;32.30;84.80;;;;;;4967175;28;20046;-38
2023/10/10 12:39:44;;;;;;;16.45;9.38;;;32.90;82.80;;;;;;4972844;28;20051;-40
2023/10/10 12:42:12;;;;;;;11.48;8.85;;;33.00;78.80;;;;;;4973626;28;20058;-40
2023/10/10 12:44:39;;;;;;;13.98;8.75;;;32.70;77.70;;;;;;4972216;28;20463;-40
2023/10/10 12:47:07;;;;;;;15.05;9.15;;;33.90;76.30;;;;;;4980008;28;20081;-39
2023/10/10 12:49:44;;;;;;;14.52;8.68;;;35.50;71.10;;;;;;4972759;28;20101;-39
2023/10/10 12:52:12;;;;;;;15.10;9.55;;;35.60;68.80;;;;;;4955199;28;20153;-41
2023/10/10 12:54:41;;;;;;;13.25;9.18;;;34.60;67.60;;;;;;4971604;28;20535;-40
2023/10/10 12:57:14;;;;;;;13.27;9.45;;;34.40;68.10;;;;;;4972860;28;20547;-40
2023/10/10 12:59:48;;;;;;;12.57;9.13;;;35.20;66.20;;;;;;4972928;28;20055;-39
2023/10/10 13:02:15;;;;;;;16.48;10.15;;;35.70;65.70;;;;;;4973336;28;20050;-42
2023/10/10 13:04:48;;;;;;;15.57;10.18;;;36.90;61.80;;;;;;4973245;28;20062;-39
2023/10/10 13:07:16;;;;;;;12.77;9.50;;;35.10;63.30;;;;;;4955219;28;20066;-42
2023/10/10 13:09:46;;;;;;;15.93;9.80;;;36.20;61.70;;;;;;4975346;28;20114;-43
2023/10/10 13:12:26;;;;;;;11.80;9.40;;;36.40;60.70;;;;;;4944190;28;1182074;-42
2023/10/10 13:15:05;;;;;;;11.85;9.07;;;36.70;59.70;;;;;;4981596;28;20042;-39
2023/10/10 13:17:49;;;;;;;13.77;9.32;;;37.70;58.20;;;;;;4988655;28;20039;-40
2023/10/10 13:20:18;;;;;;;12.57;8.73;;;38.50;57.40;;;;;;4973556;28;20054;-41
2023/10/10 13:22:50;;;;;;;15.93;8.88;;;39.00;55.20;;;;;;4971824;28;20141;-41
2023/10/10 13:25:19;;;;;;;15.80;9.55;;;39.00;55.00;;;;;;4972964;28;20051;-40
2023/10/10 13:27:46;;;;;;;14.65;9.77;;;38.20;54.10;;;;;;4973370;28;20795;-41
2023/10/10 13:30:13;;;;;;;14.25;9.48;;;39.20;54.70;;;;;;4959433;28;20053;-40
2023/10/10 13:32:42;;;;;;;12.05;9.13;;;40.40;51.90;;;;;;4972998;28;20465;-41
2023/10/10 13:35:10;;;;;;;14.95;9.48;;;40.60;50.40;;;;;;4972115;28;20129;-40
2023/10/10 13:37:43;;;;;;;16.52;9.10;;;40.30;51.00;;;;;;4973373;28;20113;-40
2023/10/10 13:40:20;;;;;;;10.57;8.00;;;40.30;49.20;;;;;;4973249;28;20331;-37
2023/10/10 13:42:48;;;;;;;10.60;9.02;;;38.40;51.40;;;;;;4973758;28;20138;-39
2023/10/10 13:45:19;;;;;;;10.10;8.95;;;37.10;51.90;;;;;;4975177;28;20054;-42
2023/10/10 13:47:48;;;;;;;11.55;8.90;;;36.20;53.30;;;;;;4973074;28;20630;-40
2023/10/10 13:50:28;;;;;;;13.45;8.77;;;38.40;51.80;;;;;;4975559;28;20074;-41
2023/10/10 13:52:56;;;;;;;12.90;10.43;;;38.90;50.90;;;;;;4971821;28;20074;-40
2023/10/10 13:55:23;;;;;;;10.82;8.80;;;39.40;50.00;;;;;;4975822;28;20074;-42
2023/10/10 13:57:50;;;;;;;12.98;7.95;;;38.70;50.00;;;;;;4971969;28;20392;-42
2023/10/10 14:00:41;;;;;;;12.43;8.75;;;38.10;50.20;;;;;;4974080;28;21159;-42
2023/10/10 14:03:06;;;;;;;11.45;8.80;;;37.90;51.00;;;;;;4971904;28;20051;-39
2023/10/10 14:05:36;;;;;;;13.15;8.30;;;38.20;50.00;;;;;;4976855;28;20089;-41
2023/10/10 14:08:17;;;;;;;14.50;9.18;;;37.70;50.30;;;;;;4976600;28;20304;-39
2023/10/10 14:10:50;;;;;;;17.92;9.10;;;38.40;50.10;;;;;;4971802;28;20046;-41
2023/10/10 14:13:20;;;;;;;12.40;8.50;;;39.60;49.50;;;;;;4974869;28;20378;-41
2023/10/10 14:15:55;;;;;;;18.55;10.05;;;40.00;48.40;;;;;;4957259;28;20062;-44
2023/10/10 14:18:49;;;;;;;10.00;8.70;;;38.70;49.50;;;;;;4981295;28;20061;-41
2023/10/10 14:21:25;;;;;;;14.98;8.52;;;38.70;49.50;;;;;;4972003;28;20051;-39
2023/10/10 14:24:04;;;;;;;16.45;8.77;;;38.60;49.20;;;;;;4967716;28;20137;-40
2023/10/10 14:26:34;;;;;;;14.75;8.07;;;37.90;49.80;;;;;;4969159;28;20423;-41
2023/10/10 14:29:06;;;;;;;16.75;8.57;;;36.60;50.90;;;;;;4971343;28;20535;-40
2023/10/10 14:31:34;;;;;;;11.57;8.13;;;37.20;50.60;;;;;;4959684;28;20047;-41
2023/10/10 14:34:04;;;;;;;12.45;7.70;;;37.90;49.40;;;;;;4971011;28;20400;-39
2023/10/10 14:36:39;;;;;;;10.30;8.07;;;36.90;49.30;;;;;;4975690;28;20146;-41
2023/10/10 14:39:28;;;;;;;10.73;7.63;;;36.30;49.50;;;;;;4976297;28;20359;-41
2023/10/10 14:41:59;;;;;;;10.10;7.15;;;35.60;49.40;;;;;;4975097;28;20054;-41
2023/10/10 14:44:28;;;;;;;11.50;7.70;;;34.60;51.00;;;;;;4976059;28;20496;-39
2023/10/10 14:46:57;;;;;;;10.48;7.85;;;34.60;51.00;;;;;;4973109;28;20067;-40
2023/10/10 14:49:31;;;;;;;11.65;7.30;;;34.50;51.20;;;;;;4971979;28;20075;-42
2023/10/10 14:52:03;;;;;;;13.75;8.15;;;33.90;51.60;;;;;;4973035;28;20062;-43
2023/10/10 14:54:37;;;;;;;11.65;8.18;;;33.50;52.30;;;;;;4973254;28;20596;-38
2023/10/10 14:57:05;;;;;;;11.82;7.70;;;33.80;51.60;;;;;;4976493;28;20051;-41
2023/10/10 14:59:35;;;;;;;12.95;7.50;;;32.80;52.60;;;;;;4972584;28;20335;-39
2023/10/10 15:02:04;;;;;;;12.68;7.82;;;32.60;52.10;;;;;;4969455;28;20393;-45
2023/10/10 15:04:33;;;;;;;13.98;8.02;;;32.20;52.70;;;;;;4970388;28;20275;-38
2023/10/10 15:07:04;;;;;;;11.68;8.13;;;31.40;54.00;;;;;;4965616;28;20047;-41
2023/10/10 15:09:36;;;;;;;11.30;8.10;;;30.20;55.30;;;;;;4963235;28;20046;-39
2023/10/10 15:12:03;;;;;;;11.57;7.43;;;29.90;56.20;;;;;;4972677;28;20079;-41
2023/10/10 15:14:31;;;;;;;11.20;7.68;;;29.20;56.40;;;;;;4966648;28;20050;-40
2023/10/10 15:17:03;;;;;;;14.23;7.68;;;28.80;56.70;;;;;;4967124;28;20097;-40
2023/10/10 15:19:32;;;;;;;12.40;7.68;;;29.00;56.60;;;;;;4965344;28;20045;-41
2023/10/10 15:21:59;;;;;;;11.80;8.02;;;28.90;56.90;;;;;;4968526;28;20074;-38
2023/10/10 15:24:29;;;;;;;10.45;7.72;;;29.10;56.50;;;;;;4971370;28;20047;-37
2023/10/10 15:26:56;;;;;;;10.10;7.70;;;29.60;56.20;;;;;;4972138;28;20134;-39
2023/10/10 15:29:26;;;;;;;11.82;7.75;;;30.50;55.30;;;;;;4964721;28;20034;-41
2023/10/10 15:31:56;;;;;;;11.40;6.90;;;30.40;55.10;;;;;;4968755;28;20042;-40